AAL3073 KIAD-KCLT
Flight info
| Callsign | AAL3073 |
|---|---|
| Flight time | 1h 5m |
| Altitude | 30000 |
| Route | SCRAM6 GLANC AIROW CHSLY6 |
| Aircraft | A20N/M-SDE2E3FGHIRWXY/LB1 |
Departure
| Time | 2026-05-07 17:07 |
|---|---|
| Airport | Washington Dulles International Airport (KIAD) |
Arrival
| Time | 2026-05-07 18:12 |
|---|---|
| Airport | Charlotte Douglas International Airport (KCLT) |
| Time | Latitude | Longitude | Altitude | Speed | Heading |
|---|---|---|---|---|---|
| 2026-05-07 16:35 | 38.94926 | -77.45377 | 292 ft | 0 kts | 181° |
| 2026-05-07 16:52 | 38.94940 | -77.45377 | 291 ft | 2 kts | 187° |
| 2026-05-07 16:53 | 38.94955 | -77.45373 | 291 ft | 2 kts | 200° |
| 2026-05-07 16:53 | 38.94968 | -77.45364 | 291 ft | 2 kts | 213° |
| 2026-05-07 16:53 | 38.94980 | -77.45353 | 291 ft | 2 kts | 226° |
| 2026-05-07 16:53 | 38.94989 | -77.45338 | 291 ft | 2 kts | 238° |
| 2026-05-07 16:54 | 38.94997 | -77.45321 | 291 ft | 2 kts | 250° |
| 2026-05-07 16:54 | 38.95000 | -77.45303 | 291 ft | 2 kts | 263° |
| 2026-05-07 16:54 | 38.95001 | -77.45290 | 291 ft | 1 kts | 270° |
| 2026-05-07 16:54 | 38.95001 | -77.45283 | 291 ft | 0 kts | 272° |
| 2026-05-07 16:55 | 38.95001 | -77.45284 | 291 ft | 0 kts | 272° |
| 2026-05-07 16:59 | 38.95001 | -77.45287 | 291 ft | 1 kts | 272° |
| 2026-05-07 16:59 | 38.95002 | -77.45306 | 291 ft | 3 kts | 272° |
| 2026-05-07 16:59 | 38.95003 | -77.45342 | 291 ft | 4 kts | 275° |
| 2026-05-07 16:59 | 38.95015 | -77.45393 | 291 ft | 7 kts | 291° |
| 2026-05-07 17:00 | 38.95034 | -77.45459 | 290 ft | 8 kts | 291° |
| 2026-05-07 17:00 | 38.95044 | -77.45542 | 289 ft | 10 kts | 256° |
| 2026-05-07 17:00 | 38.95001 | -77.45601 | 289 ft | 9 kts | 189° |
| 2026-05-07 17:00 | 38.94930 | -77.45602 | 289 ft | 10 kts | 180° |
| 2026-05-07 17:01 | 38.94855 | -77.45604 | 290 ft | 10 kts | 181° |
| 2026-05-07 17:01 | 38.94778 | -77.45605 | 291 ft | 11 kts | 181° |
| 2026-05-07 17:01 | 38.94697 | -77.45606 | 292 ft | 11 kts | 181° |
| 2026-05-07 17:01 | 38.94612 | -77.45608 | 292 ft | 12 kts | 181° |
| 2026-05-07 17:02 | 38.94522 | -77.45609 | 292 ft | 13 kts | 181° |
| 2026-05-07 17:02 | 38.94429 | -77.45611 | 293 ft | 13 kts | 181° |
| 2026-05-07 17:02 | 38.94332 | -77.45612 | 293 ft | 14 kts | 181° |
| 2026-05-07 17:02 | 38.94231 | -77.45614 | 293 ft | 14 kts | 181° |
| 2026-05-07 17:03 | 38.94123 | -77.45615 | 293 ft | 15 kts | 181° |
| 2026-05-07 17:03 | 38.94013 | -77.45617 | 292 ft | 16 kts | 180° |
| 2026-05-07 17:03 | 38.93895 | -77.45618 | 292 ft | 17 kts | 181° |
| 2026-05-07 17:03 | 38.93788 | -77.45621 | 290 ft | 13 kts | 181° |
| 2026-05-07 17:04 | 38.93714 | -77.45610 | 290 ft | 11 kts | 153° |
| 2026-05-07 17:04 | 38.93656 | -77.45539 | 289 ft | 10 kts | 132° |
| 2026-05-07 17:04 | 38.93601 | -77.45494 | 288 ft | 9 kts | 181° |
| 2026-05-07 17:04 | 38.93533 | -77.45523 | 287 ft | 10 kts | 201° |
| 2026-05-07 17:05 | 38.93460 | -77.45558 | 286 ft | 11 kts | 201° |
| 2026-05-07 17:05 | 38.93393 | -77.45591 | 285 ft | 10 kts | 201° |
| 2026-05-07 17:05 | 38.93372 | -77.45631 | 285 ft | 6 kts | 285° |
| 2026-05-07 17:05 | 38.93385 | -77.45673 | 285 ft | 0 kts | 291° |
| 2026-05-07 17:06 | 38.93456 | -77.45912 | 286 ft | 66 kts | 290° |
| 2026-05-07 17:06 | 38.93698 | -77.46738 | 294 ft | 130 kts | 290° |
| 2026-05-07 17:06 | 38.94077 | -77.48055 | 387 ft | 174 kts | 291° |
| 2026-05-07 17:07 | 38.94505 | -77.49487 | 1031 ft | 173 kts | 295° |
| 2026-05-07 17:07 | 38.94927 | -77.50875 | 1910 ft | 166 kts | 294° |
| 2026-05-07 17:07 | 38.95334 | -77.52207 | 2620 ft | 166 kts | 294° |
| 2026-05-07 17:07 | 38.95766 | -77.53655 | 3119 ft | 182 kts | 292° |
| 2026-05-07 17:08 | 38.96063 | -77.55299 | 3581 ft | 203 kts | 270° |
| 2026-05-07 17:08 | 38.95462 | -77.57031 | 3971 ft | 233 kts | 227° |
| 2026-05-07 17:08 | 38.93943 | -77.58019 | 4421 ft | 261 kts | 193° |
| 2026-05-07 17:08 | 38.92097 | -77.58250 | 5062 ft | 276 kts | 186° |
| 2026-05-07 17:09 | 38.90165 | -77.58405 | 5958 ft | 280 kts | 187° |
| 2026-05-07 17:09 | 38.88220 | -77.58632 | 6942 ft | 280 kts | 190° |
| 2026-05-07 17:09 | 38.86313 | -77.58923 | 7948 ft | 278 kts | 193° |
| 2026-05-07 17:09 | 38.84439 | -77.59258 | 8965 ft | 275 kts | 195° |
| 2026-05-07 17:10 | 38.82574 | -77.59621 | 9969 ft | 272 kts | 197° |
| 2026-05-07 17:10 | 38.80719 | -77.60005 | 10789 ft | 275 kts | 197° |
| 2026-05-07 17:10 | 38.78775 | -77.60427 | 11222 ft | 292 kts | 197° |
| 2026-05-07 17:10 | 38.76699 | -77.60880 | 11599 ft | 310 kts | 197° |
| 2026-05-07 17:11 | 38.74528 | -77.61350 | 11936 ft | 328 kts | 197° |
| 2026-05-07 17:11 | 38.72212 | -77.61850 | 12277 ft | 345 kts | 196° |
| 2026-05-07 17:11 | 38.69807 | -77.62359 | 12893 ft | 352 kts | 196° |
| 2026-05-07 17:11 | 38.67417 | -77.62862 | 13613 ft | 355 kts | 197° |
| 2026-05-07 17:12 | 38.64949 | -77.63382 | 14300 ft | 359 kts | 197° |
| 2026-05-07 17:12 | 38.62489 | -77.63902 | 14968 ft | 362 kts | 197° |
| 2026-05-07 17:12 | 38.60016 | -77.64427 | 15654 ft | 363 kts | 198° |
| 2026-05-07 17:12 | 38.57521 | -77.64957 | 16363 ft | 364 kts | 198° |
| 2026-05-07 17:13 | 38.55042 | -77.65484 | 17014 ft | 367 kts | 198° |
| 2026-05-07 17:13 | 38.52496 | -77.66029 | 17650 ft | 369 kts | 198° |
| 2026-05-07 17:13 | 38.49979 | -77.66567 | 18307 ft | 370 kts | 199° |
| 2026-05-07 17:13 | 38.47494 | -77.67323 | 18948 ft | 360 kts | 209° |
| 2026-05-07 17:14 | 38.45319 | -77.68726 | 19605 ft | 348 kts | 220° |
| 2026-05-07 17:14 | 38.43493 | -77.70629 | 20269 ft | 340 kts | 230° |
| 2026-05-07 17:14 | 38.41908 | -77.72871 | 20795 ft | 341 kts | 232° |
| 2026-05-07 17:14 | 38.40331 | -77.75156 | 21271 ft | 345 kts | 232° |
| 2026-05-07 17:15 | 38.38765 | -77.77435 | 21810 ft | 346 kts | 232° |
| 2026-05-07 17:15 | 38.37184 | -77.79741 | 22401 ft | 345 kts | 232° |
| 2026-05-07 17:15 | 38.35632 | -77.82078 | 22932 ft | 346 kts | 233° |
| 2026-05-07 17:15 | 38.34109 | -77.84426 | 23423 ft | 347 kts | 234° |
| 2026-05-07 17:16 | 38.32563 | -77.86808 | 23901 ft | 348 kts | 233° |
| 2026-05-07 17:16 | 38.31036 | -77.89155 | 24448 ft | 347 kts | 234° |
| 2026-05-07 17:16 | 38.29514 | -77.91489 | 25102 ft | 343 kts | 234° |
| 2026-05-07 17:16 | 38.28003 | -77.93804 | 25725 ft | 340 kts | 234° |
| 2026-05-07 17:17 | 38.26512 | -77.96094 | 26315 ft | 337 kts | 234° |
| 2026-05-07 17:17 | 38.25010 | -77.98392 | 26860 ft | 335 kts | 234° |
| 2026-05-07 17:17 | 38.23547 | -78.00639 | 27365 ft | 333 kts | 234° |
| 2026-05-07 17:17 | 38.22068 | -78.02901 | 27870 ft | 332 kts | 234° |
| 2026-05-07 17:18 | 38.20609 | -78.05132 | 28344 ft | 331 kts | 235° |
| 2026-05-07 17:18 | 38.19130 | -78.07393 | 28754 ft | 331 kts | 234° |
| 2026-05-07 17:18 | 38.17665 | -78.09627 | 29105 ft | 333 kts | 235° |
| 2026-05-07 17:18 | 38.16180 | -78.11897 | 29444 ft | 334 kts | 235° |
| 2026-05-07 17:19 | 38.14686 | -78.14174 | 29798 ft | 335 kts | 235° |
| 2026-05-07 17:19 | 38.13193 | -78.16450 | 29923 ft | 336 kts | 235° |
| 2026-05-07 17:19 | 38.10203 | -78.21001 | 29929 ft | 336 kts | 235° |
| 2026-05-07 17:20 | 38.07218 | -78.25535 | 29922 ft | 336 kts | 236° |
| 2026-05-07 17:20 | 38.04283 | -78.30109 | 29921 ft | 336 kts | 236° |
| 2026-05-07 17:21 | 38.01343 | -78.34695 | 29930 ft | 336 kts | 236° |
| 2026-05-07 17:21 | 37.98387 | -78.39294 | 29924 ft | 336 kts | 236° |
| 2026-05-07 17:22 | 37.95433 | -78.43892 | 29924 ft | 336 kts | 236° |
| 2026-05-07 17:22 | 37.92505 | -78.48445 | 29924 ft | 336 kts | 236° |
| 2026-05-07 17:23 | 37.89545 | -78.53030 | 29919 ft | 336 kts | 236° |
| 2026-05-07 17:23 | 37.86588 | -78.57610 | 29923 ft | 336 kts | 236° |
| 2026-05-07 17:24 | 37.83640 | -78.62171 | 29912 ft | 336 kts | 236° |
| 2026-05-07 17:24 | 37.80679 | -78.66737 | 29916 ft | 336 kts | 236° |
| 2026-05-07 17:25 | 37.77723 | -78.71296 | 29909 ft | 335 kts | 236° |
| 2026-05-07 17:25 | 37.74708 | -78.75775 | 29904 ft | 337 kts | 234° |
| 2026-05-07 17:26 | 37.71404 | -78.79945 | 29900 ft | 336 kts | 230° |
| 2026-05-07 17:26 | 37.67823 | -78.83767 | 29896 ft | 341 kts | 227° |
| 2026-05-07 17:27 | 37.64016 | -78.87372 | 29894 ft | 341 kts | 226° |
| 2026-05-07 17:27 | 37.60222 | -78.90955 | 29894 ft | 341 kts | 226° |
| 2026-05-07 17:28 | 37.56421 | -78.94520 | 29898 ft | 342 kts | 226° |
| 2026-05-07 17:28 | 37.52610 | -78.98084 | 29904 ft | 342 kts | 226° |
| 2026-05-07 17:29 | 37.48780 | -79.01653 | 29904 ft | 341 kts | 226° |
| 2026-05-07 17:29 | 37.44985 | -79.05180 | 29899 ft | 342 kts | 226° |
| 2026-05-07 17:30 | 37.41098 | -79.08661 | 29905 ft | 344 kts | 225° |
| 2026-05-07 17:30 | 37.37162 | -79.12087 | 29903 ft | 344 kts | 225° |
| 2026-05-07 17:31 | 37.33221 | -79.15524 | 29904 ft | 344 kts | 225° |
| 2026-05-07 17:31 | 37.29302 | -79.18939 | 29903 ft | 344 kts | 225° |
| 2026-05-07 17:32 | 37.25379 | -79.22357 | 29904 ft | 344 kts | 225° |
| 2026-05-07 17:32 | 37.21467 | -79.25852 | 29915 ft | 343 kts | 225° |
| 2026-05-07 17:33 | 37.17594 | -79.29353 | 29901 ft | 343 kts | 225° |
| 2026-05-07 17:33 | 37.13720 | -79.32848 | 29903 ft | 345 kts | 226° |
| 2026-05-07 17:34 | 37.09811 | -79.36372 | 29897 ft | 344 kts | 226° |
| 2026-05-07 17:34 | 37.05936 | -79.39858 | 29898 ft | 345 kts | 226° |
| 2026-05-07 17:35 | 37.02032 | -79.43366 | 29894 ft | 345 kts | 225° |
| 2026-05-07 17:35 | 36.98059 | -79.46762 | 29887 ft | 347 kts | 224° |
| 2026-05-07 17:36 | 36.94028 | -79.50153 | 29887 ft | 348 kts | 224° |
| 2026-05-07 17:36 | 36.90020 | -79.53528 | 29891 ft | 347 kts | 224° |
| 2026-05-07 17:37 | 36.86010 | -79.56906 | 29884 ft | 349 kts | 224° |
| 2026-05-07 17:37 | 36.81975 | -79.60301 | 29888 ft | 350 kts | 225° |
| 2026-05-07 17:38 | 36.77954 | -79.63679 | 29895 ft | 349 kts | 225° |
| 2026-05-07 17:38 | 36.73909 | -79.67064 | 29901 ft | 351 kts | 224° |
| 2026-05-07 17:39 | 36.69865 | -79.70451 | 29900 ft | 350 kts | 224° |
| 2026-05-07 17:39 | 36.65808 | -79.73839 | 29899 ft | 353 kts | 224° |
| 2026-05-07 17:40 | 36.61728 | -79.77249 | 29895 ft | 352 kts | 224° |
| 2026-05-07 17:40 | 36.57684 | -79.80621 | 29901 ft | 353 kts | 224° |
| 2026-05-07 17:41 | 36.53593 | -79.84031 | 29901 ft | 353 kts | 224° |
| 2026-05-07 17:41 | 36.49515 | -79.87424 | 29903 ft | 353 kts | 224° |
| 2026-05-07 17:42 | 36.45419 | -79.90820 | 29902 ft | 354 kts | 224° |
| 2026-05-07 17:42 | 36.43378 | -79.92517 | 29457 ft | 358 kts | 224° |
| 2026-05-07 17:42 | 36.41299 | -79.94247 | 28545 ft | 363 kts | 223° |
| 2026-05-07 17:43 | 36.39199 | -79.95992 | 27695 ft | 366 kts | 223° |
| 2026-05-07 17:43 | 36.37111 | -79.97720 | 26872 ft | 367 kts | 223° |
| 2026-05-07 17:43 | 36.35006 | -79.99456 | 26471 ft | 357 kts | 223° |
| 2026-05-07 17:43 | 36.32979 | -80.01118 | 26368 ft | 340 kts | 223° |
| 2026-05-07 17:44 | 36.31014 | -80.02731 | 26360 ft | 334 kts | 223° |
| 2026-05-07 17:44 | 36.29097 | -80.04321 | 25987 ft | 334 kts | 223° |
| 2026-05-07 17:44 | 36.27173 | -80.05913 | 25533 ft | 334 kts | 223° |
| 2026-05-07 17:44 | 36.25228 | -80.07520 | 25053 ft | 334 kts | 223° |
| 2026-05-07 17:45 | 36.23301 | -80.09109 | 24573 ft | 334 kts | 222° |
| 2026-05-07 17:45 | 36.21377 | -80.10695 | 24108 ft | 333 kts | 222° |
| 2026-05-07 17:45 | 36.19439 | -80.12285 | 23633 ft | 330 kts | 223° |
| 2026-05-07 17:45 | 36.17546 | -80.13840 | 23153 ft | 326 kts | 223° |
| 2026-05-07 17:46 | 36.15675 | -80.15380 | 22703 ft | 323 kts | 222° |
| 2026-05-07 17:46 | 36.13797 | -80.16921 | 22243 ft | 320 kts | 222° |
| 2026-05-07 17:46 | 36.11962 | -80.18430 | 21794 ft | 318 kts | 222° |
| 2026-05-07 17:46 | 36.10134 | -80.19927 | 21345 ft | 315 kts | 222° |
| 2026-05-07 17:47 | 36.08308 | -80.21424 | 20886 ft | 312 kts | 223° |
| 2026-05-07 17:47 | 36.06524 | -80.22885 | 20438 ft | 310 kts | 222° |
| 2026-05-07 17:47 | 36.04724 | -80.24365 | 19992 ft | 308 kts | 222° |
| 2026-05-07 17:47 | 36.02938 | -80.25825 | 19541 ft | 307 kts | 222° |
| 2026-05-07 17:48 | 36.01186 | -80.27255 | 19094 ft | 305 kts | 222° |
| 2026-05-07 17:48 | 35.99424 | -80.28696 | 18772 ft | 297 kts | 222° |
| 2026-05-07 17:48 | 35.97723 | -80.30083 | 18532 ft | 290 kts | 223° |
| 2026-05-07 17:48 | 35.96062 | -80.31444 | 18113 ft | 289 kts | 223° |
| 2026-05-07 17:49 | 35.94400 | -80.32803 | 17677 ft | 287 kts | 222° |
| 2026-05-07 17:49 | 35.92728 | -80.34169 | 17274 ft | 286 kts | 223° |
| 2026-05-07 17:49 | 35.91073 | -80.35522 | 16862 ft | 284 kts | 222° |
| 2026-05-07 17:49 | 35.89442 | -80.36852 | 16445 ft | 283 kts | 222° |
| 2026-05-07 17:50 | 35.87785 | -80.38206 | 16065 ft | 286 kts | 222° |
| 2026-05-07 17:50 | 35.86132 | -80.39556 | 15952 ft | 283 kts | 222° |
| 2026-05-07 17:50 | 35.84521 | -80.40855 | 15954 ft | 270 kts | 222° |
| 2026-05-07 17:50 | 35.82955 | -80.42125 | 15963 ft | 269 kts | 221° |
| 2026-05-07 17:51 | 35.81391 | -80.43370 | 15959 ft | 269 kts | 221° |
| 2026-05-07 17:51 | 35.79806 | -80.44626 | 15958 ft | 271 kts | 222° |
| 2026-05-07 17:51 | 35.78223 | -80.45879 | 15962 ft | 270 kts | 221° |
| 2026-05-07 17:51 | 35.76653 | -80.47121 | 15962 ft | 271 kts | 222° |
| 2026-05-07 17:52 | 35.75054 | -80.48387 | 15965 ft | 271 kts | 222° |
| 2026-05-07 17:52 | 35.73461 | -80.49648 | 15965 ft | 271 kts | 221° |
| 2026-05-07 17:52 | 35.71883 | -80.50896 | 15962 ft | 272 kts | 222° |
| 2026-05-07 17:52 | 35.70289 | -80.52155 | 15964 ft | 271 kts | 221° |
| 2026-05-07 17:53 | 35.68708 | -80.53403 | 15966 ft | 272 kts | 221° |
| 2026-05-07 17:53 | 35.67104 | -80.54630 | 15963 ft | 271 kts | 220° |
| 2026-05-07 17:53 | 35.65480 | -80.55857 | 15968 ft | 273 kts | 220° |
| 2026-05-07 17:53 | 35.63873 | -80.57072 | 15966 ft | 273 kts | 221° |
| 2026-05-07 17:54 | 35.62258 | -80.58295 | 15877 ft | 274 kts | 221° |
| 2026-05-07 17:54 | 35.60624 | -80.59536 | 15492 ft | 272 kts | 220° |
| 2026-05-07 17:54 | 35.59032 | -80.60742 | 15108 ft | 270 kts | 220° |
| 2026-05-07 17:54 | 35.57421 | -80.61963 | 14716 ft | 268 kts | 220° |
| 2026-05-07 17:55 | 35.55832 | -80.63167 | 14326 ft | 268 kts | 220° |
| 2026-05-07 17:55 | 35.54254 | -80.64359 | 13939 ft | 268 kts | 220° |
| 2026-05-07 17:55 | 35.52654 | -80.65560 | 13551 ft | 267 kts | 219° |
| 2026-05-07 17:55 | 35.51065 | -80.66746 | 13162 ft | 267 kts | 218° |
| 2026-05-07 17:56 | 35.49451 | -80.67949 | 12767 ft | 268 kts | 218° |
| 2026-05-07 17:56 | 35.47875 | -80.69123 | 12379 ft | 267 kts | 218° |
| 2026-05-07 17:56 | 35.46275 | -80.70312 | 11985 ft | 267 kts | 218° |
| 2026-05-07 17:56 | 35.44674 | -80.71503 | 11595 ft | 267 kts | 218° |
| 2026-05-07 17:57 | 35.43101 | -80.72678 | 11209 ft | 268 kts | 218° |
| 2026-05-07 17:57 | 35.42023 | -80.73481 | 10948 ft | 268 kts | 217° |
| 2026-05-07 17:57 | 35.39888 | -80.75068 | 10426 ft | 268 kts | 218° |
| 2026-05-07 17:57 | 35.38291 | -80.76254 | 10067 ft | 267 kts | 217° |
| 2026-05-07 17:58 | 35.36705 | -80.77430 | 9979 ft | 266 kts | 217° |
| 2026-05-07 17:58 | 35.35112 | -80.78615 | 9979 ft | 269 kts | 217° |
| 2026-05-07 17:58 | 35.33517 | -80.79797 | 9974 ft | 261 kts | 217° |
| 2026-05-07 17:58 | 35.31990 | -80.80920 | 9968 ft | 246 kts | 217° |
| 2026-05-07 17:59 | 35.30579 | -80.81957 | 9965 ft | 230 kts | 218° |
| 2026-05-07 17:59 | 35.29236 | -80.82947 | 9970 ft | 225 kts | 216° |
| 2026-05-07 17:59 | 35.27721 | -80.83612 | 9770 ft | 242 kts | 195° |
| 2026-05-07 17:59 | 35.25953 | -80.83617 | 9289 ft | 256 kts | 184° |
| 2026-05-07 18:00 | 35.24168 | -80.83459 | 8812 ft | 263 kts | 183° |
| 2026-05-07 18:00 | 35.22323 | -80.83283 | 8328 ft | 268 kts | 182° |
| 2026-05-07 18:00 | 35.20448 | -80.83111 | 7844 ft | 272 kts | 182° |
| 2026-05-07 18:00 | 35.18545 | -80.82941 | 7360 ft | 276 kts | 182° |
| 2026-05-07 18:01 | 35.16605 | -80.82773 | 6869 ft | 280 kts | 181° |
| 2026-05-07 18:01 | 35.14632 | -80.82605 | 6378 ft | 283 kts | 181° |
| 2026-05-07 18:01 | 35.12651 | -80.82439 | 5889 ft | 283 kts | 181° |
| 2026-05-07 18:01 | 35.10709 | -80.82274 | 5398 ft | 275 kts | 180° |
| 2026-05-07 18:02 | 35.07078 | -80.81947 | 4702 ft | 248 kts | 180° |
| 2026-05-07 18:02 | 35.05368 | -80.81763 | 4384 ft | 244 kts | 179° |
| 2026-05-07 18:02 | 35.03655 | -80.81580 | 4068 ft | 242 kts | 179° |
| 2026-05-07 18:03 | 35.01996 | -80.81400 | 3960 ft | 231 kts | 179° |
| 2026-05-07 18:03 | 35.00423 | -80.81228 | 3958 ft | 225 kts | 179° |
| 2026-05-07 18:03 | 34.98857 | -80.81059 | 3951 ft | 226 kts | 179° |
| 2026-05-07 18:03 | 34.97291 | -80.80893 | 3953 ft | 226 kts | 179° |
| 2026-05-07 18:04 | 34.95730 | -80.80726 | 3959 ft | 225 kts | 179° |
| 2026-05-07 18:04 | 34.94163 | -80.80559 | 3962 ft | 225 kts | 179° |
| 2026-05-07 18:04 | 34.92589 | -80.80393 | 3964 ft | 225 kts | 179° |
| 2026-05-07 18:04 | 34.91021 | -80.80262 | 3972 ft | 229 kts | 187° |
| 2026-05-07 18:05 | 34.89466 | -80.80845 | 3967 ft | 245 kts | 217° |
| 2026-05-07 18:05 | 34.88320 | -80.82404 | 3960 ft | 248 kts | 246° |
| 2026-05-07 18:05 | 34.87988 | -80.84443 | 3956 ft | 248 kts | 274° |
| 2026-05-07 18:05 | 34.88557 | -80.86428 | 3951 ft | 254 kts | 302° |
| 2026-05-07 18:06 | 34.89836 | -80.87943 | 3966 ft | 259 kts | 319° |
| 2026-05-07 18:06 | 34.91298 | -80.89230 | 3953 ft | 259 kts | 321° |
| 2026-05-07 18:06 | 34.92859 | -80.90395 | 3950 ft | 261 kts | 330° |
| 2026-05-07 18:06 | 34.94555 | -80.91124 | 3942 ft | 249 kts | 344° |
| 2026-05-07 18:07 | 34.96230 | -80.91408 | 3942 ft | 235 kts | 351° |
| 2026-05-07 18:07 | 34.97823 | -80.91534 | 3946 ft | 227 kts | 352° |
| 2026-05-07 18:07 | 34.99401 | -80.91640 | 3955 ft | 222 kts | 352° |
| 2026-05-07 18:07 | 35.00894 | -80.91748 | 3942 ft | 207 kts | 351° |
| 2026-05-07 18:08 | 35.02302 | -80.91861 | 3930 ft | 194 kts | 351° |
| 2026-05-07 18:08 | 35.03660 | -80.91979 | 3810 ft | 193 kts | 350° |
| 2026-05-07 18:08 | 35.04989 | -80.92099 | 3627 ft | 193 kts | 351° |
| 2026-05-07 18:08 | 35.06335 | -80.92220 | 3357 ft | 191 kts | 351° |
| 2026-05-07 18:09 | 35.07662 | -80.92337 | 3088 ft | 190 kts | 351° |
| 2026-05-07 18:09 | 35.09030 | -80.92458 | 2837 ft | 205 kts | 352° |
| 2026-05-07 18:09 | 35.10466 | -80.92584 | 2556 ft | 208 kts | 352° |
| 2026-05-07 18:09 | 35.11927 | -80.92707 | 2278 ft | 210 kts | 353° |
| 2026-05-07 18:10 | 35.13383 | -80.92831 | 2003 ft | 209 kts | 353° |
| 2026-05-07 18:10 | 35.14809 | -80.92954 | 1733 ft | 200 kts | 353° |
| 2026-05-07 18:10 | 35.16140 | -80.93067 | 1480 ft | 185 kts | 353° |
| 2026-05-07 18:10 | 35.17380 | -80.93174 | 1286 ft | 170 kts | 353° |
| 2026-05-07 18:11 | 35.18527 | -80.93272 | 1032 ft | 158 kts | 353° |
| 2026-05-07 18:11 | 35.19583 | -80.93365 | 820 ft | 146 kts | 353° |
| 2026-05-07 18:11 | 35.20527 | -80.93442 | 714 ft | 126 kts | 349° |
| 2026-05-07 18:11 | 35.21249 | -80.93514 | 724 ft | 81 kts | 355° |
| 2026-05-07 18:12 | 35.21687 | -80.93548 | 731 ft | 47 kts | 354° |
| 2026-05-07 18:12 | 35.21901 | -80.93568 | 733 ft | 22 kts | 355° |
| 2026-05-07 18:12 | 35.22021 | -80.93594 | 734 ft | 15 kts | 341° |
| 2026-05-07 18:12 | 35.22114 | -80.93660 | 735 ft | 15 kts | 325° |
| 2026-05-07 18:13 | 35.22140 | -80.93723 | 735 ft | 8 kts | 218° |
| 2026-05-07 18:13 | 35.22075 | -80.93722 | 734 ft | 10 kts | 171° |
| 2026-05-07 18:13 | 35.21996 | -80.93713 | 734 ft | 12 kts | 187° |
| 2026-05-07 18:13 | 35.21928 | -80.93778 | 733 ft | 13 kts | 228° |
| 2026-05-07 18:14 | 35.21860 | -80.93872 | 731 ft | 15 kts | 229° |
| 2026-05-07 18:14 | 35.21785 | -80.93977 | 729 ft | 17 kts | 228° |
| 2026-05-07 18:14 | 35.21704 | -80.94087 | 726 ft | 14 kts | 229° |
| 2026-05-07 18:14 | 35.21642 | -80.94187 | 723 ft | 14 kts | 252° |
| 2026-05-07 18:15 | 35.21641 | -80.94315 | 721 ft | 15 kts | 272° |
| 2026-05-07 18:15 | 35.21617 | -80.94425 | 719 ft | 11 kts | 242° |
| 2026-05-07 18:15 | 35.21592 | -80.94527 | 717 ft | 13 kts | 263° |
| 2026-05-07 18:15 | 35.21585 | -80.94634 | 717 ft | 8 kts | 266° |
| 2026-05-07 18:16 | 35.21600 | -80.94701 | 717 ft | 8 kts | 324° |
| 2026-05-07 18:16 | 35.21661 | -80.94710 | 718 ft | 8 kts | 360° |
| 2026-05-07 18:16 | 35.21719 | -80.94699 | 719 ft | 8 kts | 44° |
| 2026-05-07 18:16 | 35.21746 | -80.94634 | 720 ft | 8 kts | 58° |
| 2026-05-07 18:17 | 35.21761 | -80.94604 | 721 ft | 1 kts | 58° |
| 2026-05-07 18:17 | 35.21764 | -80.94599 | 721 ft | 0 kts | 59° |